Findlay, Illinois
Current Conditions -  °F | °C
As of 3:54 AM on Friday 24 Oct 2014 (Local Time) from KDEC Reporting Station
Overcast Overcast  
Wind Chill: 54°   Ceiling: 4200
Heat Index: 54°   Visibility: 10mi
Dew Point: 47°   Wind: 3mph
Humidity: 77%   Direction: 220°SW
Pressure: 30.08"   Gusts: NA
Location:  39.52°N, 88.75°W
Report Text: KDEC 240854Z AUTO 22003KT 10SM OVC042 12/08 A3008 RMK AO2 SLP185 T01220083 55003 TSNO
Loading
Personal Weather Stations






























Interactive Weather Map
Tropical Storm Tracking
New forecast layout! Learn more

10-Day Weather Forecast

Advertisements
Track Severe Weather on mobile